Tiempo atmosférico en la estación meteorológica de Ávila, Ávila (1130 m.)



Fecha
DESCASC
Temp. máxima en grados centígrados (hora)
DESCASC
Temp. mínima en grados centígrados (hora)
DESCASC
Temp. media en grados centígrados
DESCASC
Racha de viento máxima en m/sg (hora)
DESCASC
Velocidad máxima media en intervalos de 10 minutos(hora)
DESCASC
Precipitaciones diarias en mm
DESCASC
Precipitaciones de 00:00 a 06:00 en mm
DESCASC
Precipitaciones de 06:00 a 12:00 en mm
DESCASC
Precipitaciones de 12:00 a 18:00 en mm
DESCASC
Precipitaciones de 18:00 a 24:00 en mm
DESCASC
15-08-2019 30.5 (19:00) 16.7 (08:00) 23.6 9.72 (17:40) 4.72 (18:50) 0 0 0 0 0
14-08-2019 29.3 (18:10) 11.5 (00:00) 20.4 8.33 (17:20) 5 (17:50) 0 0 0 0 0
13-08-2019 25.2 (17:40) 8.8 (00:00) 17 8.61 (19:00) 5 (18:30) 0 0 0 0 0
12-08-2019 21.6 (18:00) 9.7 (00:00) 15.7 10.28 (14:40) 5.56 (11:50) 0 0 0 0 0
11-08-2019 22.7 (17:40) 13.6 (00:00) 18.2 10.83 (14:20) 6.67 (14:20) 0 0 0 0 0
10-08-2019 28 (18:00) 11.5 (00:00) 19.8 7.78 (17:20) 4.72 (23:50) 0 0 0 0 0
09-08-2019 29 (14:30) 16.8 (00:00) 22.9 11.67 (17:30) 6.67 (18:00) 0.6 0 0 0.6 0
08-08-2019 32 (17:40) 15.6 (00:00) 23.8 10 (17:50) 5.28 (19:30) 0 0 0 0 0
07-08-2019 23.2 (00:00) 18.3 (00:00) 20.8 8.06 (14:20) 4.72 (08:20) 0.4 0 0 0.4 0
06-08-2019 32.8 (16:00) 15.8 (00:00) 24.3 9.44 (18:50) 5.28 (18:30) 0 0 0 0 0
05-08-2019 33 (15:30) 16.3 (00:00) 24.6 10.83 (18:10) 6.39 (17:50) 0 0 0 0 0
04-08-2019 33.2 (16:20) 16.5 (00:00) 24.9 9.72 (17:10) 6.39 (16:50) 0 0 0 0 0
03-08-2019 33.1 (16:40) 16.1 (00:00) 24.6 8.89 (19:20) 5.83 (19:20) 0 0 0 0 0
02-08-2019 32.6 (17:30) 14.9 (00:00) 23.7 11.11 (11:50) 5 (18:50) 0 0 0 0 0
01-08-2019 29.3 (17:10) 18.1 (00:00) 23.7 9.72 (13:30) 5.56 (13:30) 0 0 0 0 0
31-07-2019 30.6 (17:50) 11.7 (00:00) 21.2 11.67 (16:20) 5.28 (12:50) 0 0 0 0 0
30-07-2019 24.5 (19:00) 9.8 (00:00) 17.2 9.17 (16:30) 5.28 (01:50) 0 0 0 0 0
29-07-2019 26.7 (17:00) 14.1 (00:00) 20.4 12.5 (17:10) 7.5 (18:40) 0 0 0 0 0
28-07-2019 26.3 (18:00) 10 (00:00) 18.1 8.61 (19:30) 4.72 (17:40) 0 0 0 0 0
27-07-2019 22.7 (19:10) 13.2 (00:00) 18 13.89 (17:50) 8.61 (17:50) 0 0 0 0 0
26-07-2019 26.1 (17:30) 16.5 (00:00) 21.3 11.39 (18:20) 6.94 (18:30) 0 0 0 0 0
25-07-2019 31.5 (16:10) 17.8 (00:00) 24.6 11.11 (13:00) 6.39 (12:50) 0 0 0 0 0
24-07-2019 33.5 (17:20) 20.6 (00:00) 27.1 11.67 (15:10) 5.28 (15:10) 0 0 0 0 0
23-07-2019 32.8 (19:20) 19.2 (00:00) 26 14.44 (20:40) 6.39 (21:40) 0.4 0.2 0.2 0 0
22-07-2019 33.7 (17:10) 22.4 (00:00) 28.1 15.28 (23:00) 6.94 (15:50) 0.6 0 0 0 0.6
21-07-2019 34.9 (16:30) 17.2 (00:00) 26.1 10 (15:20) 4.72 (13:40) 0 0 0 0 0
20-07-2019 32.8 (16:50) 17.5 (00:00) 25.1 9.44 (19:30) 5.56 (18:40) 0 0 0 0 0
19-07-2019 33 (15:50) 17.1 (00:00) 25.1 11.11 (16:00) 5.28 (15:20) 0 0 0 0 0

Gráficas

Temp. máximas Temp. mínimas Temp. medias Precipitaciones Rachas de viento máximas Velocidades máximas media en intervalos de 10 minutos

Datos horarios

Fecha y hora oficial Temperatura (ºC) Velocidad del viento (km/h) Dirección del viento Racha (km/h) Dirección de racha Precipitación (mm) Presión (hPa) Tendencia (hPa) Humedad (%)
2019-08-17 23:00:00 25.6 7 Sur 10 Sudoeste 0 889.9 1.1 18
2019-08-17 22:00:00 28 8 Sudoeste 15 Oeste 0 889.6 0.7 17
2019-08-17 21:00:00 30.5 9 Oeste 22 Norte 0 889 -0.2 16
2019-08-17 20:00:00 32.1 16 Noroeste 27 Noroeste 0 888.8 -0.7 15
2019-08-17 19:00:00 32.5 16 Norte 29 Norte 0 888.9 -0.9 18
2019-08-17 18:00:00 32.5 18 Noroeste 27 Noroeste 0 889.2 -1 20
2019-08-17 17:00:00 33 7 Noroeste 30 Norte 0 889.5 -1.1 20
2019-08-17 16:00:00 32.2 14 Noroeste 33 Noroeste 0 889.8 -1.3 22
2019-08-17 15:00:00 31.8 10 Norte 23 Norte 0 890.2 -1.4 22
2019-08-17 14:00:00 31.9 6 Noroeste 19 Noroeste 0 890.6 -1.2 17
2019-08-17 13:00:00 31 9 Oeste 17 Sudoeste 0 891.1 -0.9 18
2019-08-17 12:00:00 29.2 7 Sudoeste 12 Sudoeste 0 891.6 -0.3 23
2019-08-17 11:00:00 25.4 3 Oeste 6 Oeste 0 891.8 0 31
2019-08-17 10:00:00 21.2 3 Sudoeste 8 Sudoeste 0 892 0.4 41
2019-08-17 09:00:00 17.7 3 Sur 10 Sur 0 891.9 0.1 47
2019-08-17 08:00:00 15.7 3 Sur 6 Sur 0 891.8 -0.5 54
2019-08-17 07:00:00 16.2 3 Sudeste 8 Sudeste 0 891.6 -0.9 49
2019-08-17 06:00:00 16.7 4 Sudeste 8 Sudeste 0 891.8 -0.9 45
2019-08-17 05:00:00 17.3 3 Sudeste 6 Sur 0 892.3 -0.4 43
2019-08-17 04:00:00 17.8 4 Sur 6 Sur 0 892.5 -0.1 38
2019-08-17 03:00:00 18.9 3 Sudoeste 6 Sudoeste 0 892.7 0.2 36
2019-08-17 02:00:00 20.2 0 Calma 9 Sur 0 892.7 0.3 32
2019-08-17 01:00:00 21.2 6 Sudoeste 8 Sudoeste 0 892.6 0.7 30
2019-08-17 00:00:00 22.4 2 Noroeste 8 Noroeste 0 892.5 1 28
2019-08-16 23:00:00 25.2 6 Noroeste 15 Norte 0 892.4 1.3 23
2019-08-16 22:00:00 26.8 7 Norte 24 Noroeste 0 891.9 0.9 24
2019-08-16 21:00:00 28.9 15 Noroeste 32 Noroeste 0 891.5 0.6 23
2019-08-16 20:00:00 30.3 18 Noroeste 39 Norte 0 891.1 -0.2 22
2019-08-16 19:00:00 31.3 22 Noroeste 36 Norte 0 891 -0.7 23
2019-08-16 18:00:00 31.8 15 Noroeste 31 Noroeste 0 890.9 -1 25
2019-08-16 17:00:00 31.7 13 Nordeste 23 Noroeste 0 891.3 -1 26
2019-08-16 16:00:00 31.3 12 Noroeste 30 Norte 0 891.7 -0.8 26
2019-08-16 15:00:00 30.9 17 Noroeste 38 Oeste 0 891.9 -1 28
2019-08-16 14:00:00 30.4 10 Noroeste 26 Noroeste 0 892.3 -0.7 28
2019-08-16 13:00:00 30 8 Sudoeste 18 Sudeste 0 892.5 -0.6 24
2019-08-16 12:00:00 28.6 5 Sudoeste 12 Sur 0 892.9 -0.2 27
2019-08-16 11:00:00 26 4 Oeste 9 Sudoeste 0 893 0.1 35
2019-08-16 10:00:00 22.7 3 Noroeste 7 Noroeste 0 893.1 0.4 40
2019-08-16 09:00:00 19.9 2 Oeste 7 Sudeste 0 893.1 0.4 47
2019-08-16 08:00:00 16.6 4 Sudeste 9 Sudeste 0 892.9 0 54
2019-08-16 07:00:00 16.9 6 Sudeste 11 Sudeste 0 892.7 -0.3 52
2019-08-16 06:00:00 16.8 0 Calma 4 Noroeste 0 892.7 -0.6 52
2019-08-16 05:00:00 17.6 2 Sur 8 Sudeste 0 892.9 -0.5 49
2019-08-16 04:00:00 17.9 2 Sudeste 12 Sur 0 893 -0.7 48
2019-08-16 03:00:00 19.1 8 Sur 14 Sudoeste 0 893.3 -0.5 44
2019-08-16 02:00:00 20 6 Sur 11 Sudoeste 0 893.4 -0.3 41
2019-08-16 01:00:00 21.7 2 Sudoeste 8 Nordeste 0 893.7 0.3 41
2019-08-16 00:00:00 23.3 3 Sudeste 12 Nordeste 0 893.8 0.9 36
2019-08-15 23:00:00 24.4 9 Norte 13 Norte 0 893.7 1 34
2019-08-15 22:00:00 25.7 8 Norte 17 Norte 0 893.4 0.5 32
2019-08-15 21:00:00 27.7 12 Norte 24 Norte 0 892.9 0 28
2019-08-15 20:00:00 28.9 13 Norte 28 Norte 0 892.7 -0.5 23
2019-08-15 19:00:00 30.5 13 Noroeste 28 Noroeste 0 892.9 -0.8 21
2019-08-15 18:00:00 30.1 9 Noroeste 35 Noroeste 0 892.9 -1.1 23
2019-08-15 17:00:00 29.6 12 Norte 29 Noroeste 0 893.2 -1.2 24
2019-08-15 16:00:00 29.2 13 Norte 27 Noroeste 0 893.7 -1 23
2019-08-15 15:00:00 28.1 13 Norte 28 Norte 0 894 -0.8 26
2019-08-15 14:00:00 27.3 13 Norte 24 Noroeste 0 894.4 -0.5 26
2019-08-15 13:00:00 25.8 11 Norte 26 Noroeste 0 894.7 -0.2 36
2019-08-15 12:00:00 24.3 12 Noroeste 22 Noroeste 0 894.8 0 43
2019-08-15 11:00:00 22.7 9 Norte 17 Noroeste 0 894.9 0.2 52
2019-08-15 10:00:00 20.6 7 Norte 15 Norte 0 894.9 0.4 57
2019-08-15 09:00:00 19.3 2 Sudeste 8 Sur 0 894.8 0.6 62
2019-08-15 08:00:00 16.9 3 Sudoeste 8 Sur 0 894.7 0.8 71
2019-08-15 07:00:00 17.5 3 Noroeste 9 Noroeste 0 894.5 0.3 68
2019-08-15 06:00:00 17.3 3 Noroeste 7 Sudeste 0 894.2 -0.3 67
2019-08-15 05:00:00 18.9 3 Oeste 9 Oeste 0 893.9 -0.8 60
2019-08-15 04:00:00 19.8 6 Oeste 11 Oeste 0 894.2 -0.4 60
2019-08-15 03:00:00 20.5 7 Sudoeste 17 Noroeste 0 894.5 0 56
2019-08-15 02:00:00 20.9 5 Sudoeste 14 Oeste 0 894.7 0.4 47
2019-08-15 01:00:00 19.9 4 Oeste 9 Sur 0 894.6 0.8 39
2019-08-15 00:00:00 21.1 0 Calma 7 Sudoeste 0 894.5 1 33
2019-08-14 23:00:00 23.8 5 Norte 12 Norte 0 894.3 1.1 27
2019-08-14 22:00:00 25.2 8 Noroeste 15 Norte 0 893.8 0.6 24
2019-08-14 21:00:00 27.3 12 Noroeste 24 Noroeste 0 893.5 0 21
2019-08-14 20:00:00 28.5 14 Noroeste 25 Noroeste 0 893.2 -0.5 19
2019-08-14 19:00:00 28.7 13 Norte 27 Noroeste 0 893.2 -0.8 19
2019-08-14 18:00:00 29 12 Noroeste 30 Noroeste 0 893.5 -0.7 18
2019-08-14 17:00:00 28.3 12 Norte 27 Norte 0 893.7 -0.7 18
2019-08-14 16:00:00 27.6 14 Norte 29 Norte 0 894 -0.8 18
2019-08-14 15:00:00 27.5 10 Norte 23 Norte 0 894.2 -0.7 18
2019-08-14 14:00:00 26.8 6 Nordeste 25 Noroeste 0 894.4 -0.4 19
2019-08-14 13:00:00 25.4 10 Norte 24 Norte 0 894.8 -0.1 20
2019-08-14 12:00:00 24.1 12 Norte 22 Nordeste 0 894.9 0.4 22
2019-08-14 11:00:00 22.6 3 Sudoeste 8 Sudoeste 0 894.8 0.3 24
2019-08-14 10:00:00 17.9 4 Norte 9 Noroeste 0 894.9 0.8 31
2019-08-14 09:00:00 14 3 Sudeste 9 Sur 0 894.5 0.4 38
2019-08-14 08:00:00 12.4 0 Calma 9 Sudeste 0 894.5 0.2 42
2019-08-14 07:00:00 11.8 4 Sudeste 10 Sur 0 894.1 -0.4 42
2019-08-14 06:00:00 11.7 3 Sur 12 Sur 0 894.1 -0.4 43
2019-08-14 05:00:00 12.4 4 Sur 8 Sudoeste 0 894.3 -0.4 40
2019-08-14 04:00:00 12.8 3 Sur 6 Sur 0 894.5 -0.1 39
2019-08-14 03:00:00 13.6 3 Sur 14 Sudoeste 0 894.5 0.1 37
2019-08-14 02:00:00 14.8 5 Sur 11 Sur 0 894.7 0.4 34
2019-08-14 01:00:00 15.9 2 Oeste 12 Sudeste 0 894.6 0.8 33
2019-08-14 00:00:00 18.1 3 Norte 9 Norte 0 894.4 1.1 28
2019-08-13 23:00:00 19.2 6 Norte 11 Norte 0 894.3 1.2 25
2019-08-13 22:00:00 20.6 8 Norte 19 Noroeste 0 893.8 0.7 23
2019-08-13 21:00:00 22.8 14 Norte 25 Norte 0 893.3 0.4 20
2019-08-13 20:00:00 24.2 15 Noroeste 28 Norte 0 893.1 -0.1 17
2019-08-13 19:00:00 24.7 15 Norte 31 Norte 0 893.1 -0.3 17
2019-08-13 18:00:00 24.7 14 Norte 30 Nordeste 0 892.9 -0.8 17
2019-08-13 17:00:00 24.8 14 Noroeste 27 Norte 0 893.2 -1 19
2019-08-13 16:00:00 24.2 10 Norte 23 Noroeste 0 893.4 -1.1 21
2019-08-13 15:00:00 23.2 9 Norte 23 Norte 0 893.7 -0.9 23
2019-08-13 14:00:00 22.1 12 Norte 26 Noroeste 0 894.2 0 27
2019-08-13 13:00:00 21.1 15 Noroeste 24 Noroeste 0 894.5 0.3 31
2019-08-13 12:00:00 19.2 13 Nordeste 22 Nordeste 0 894.6 0.6 36
2019-08-13 11:00:00 17.8 6 Noroeste 11 Noroeste 0 894.2 0.5 40
2019-08-13 10:00:00 13.9 4 Sudoeste 8 Sudoeste 0 894.2 0.7 50
2019-08-13 09:00:00 11.5 4 Sudoeste 8 Sur 0 894 0.3 56
2019-08-13 08:00:00 9.2 5 Sur 8 Sur 0 893.7 0.2 64
2019-08-13 07:00:00 9.2 4 Sur 9 Sudeste 0 893.5 -0.3 65
2019-08-13 06:00:00 10.1 3 Norte 5 Norte 0 893.7 -0.6 68
2019-08-13 05:00:00 10.7 2 Sudoeste 8 Sur 0 893.5 -1 59
2019-08-13 04:00:00 11.6 2 Noroeste 9 Norte 0 893.8 -0.7 58
2019-08-13 03:00:00 12.6 6 Norte 16 Norte 0 894.3 0.3 53
2019-08-13 02:00:00 14.1 10 Norte 18 Norte 0 894.5 0.9 48
2019-08-13 01:00:00 15.1 9 Norte 19 Norte 0 894.5 1.3 44
2019-08-13 00:00:00 16.2 12 Nordeste 31 Este 0 894 0.8 39
2019-08-12 23:00:00 17 18 Nordeste 28 Nordeste 0 893.6 0.8 34
2019-08-12 22:00:00 18.1 12 Nordeste 18 Nordeste 0 893.2 0.6 30
2019-08-12 21:00:00 19.4 11 Norte 27 Norte 0 893.2 0.5 27
2019-08-12 20:00:00 21.1 14 Norte 28 Norte 0 892.8 -0.1 25
2019-08-12 19:00:00 21.4 14 Nordeste 29 Norte 0 892.6 -0.9 25
2019-08-12 18:00:00 21.6 11 Norte 30 Norte 0 892.7 -1.2 25
2019-08-12 17:00:00 20.6 10 Norte 32 Noroeste 0 892.9 -1.2 28
2019-08-12 16:00:00 20.2 16 Noroeste 30 Norte 0 893.5 -0.9 30
2019-08-12 15:00:00 19.2 19 Norte 37 Noroeste 0 893.9 -0.7 33
2019-08-12 14:00:00 17.7 18 Norte 37 Norte 0 894.1 -0.3 36
2019-08-12 13:00:00 16.5 16 Norte 33 Noroeste 0 894.4 0.3 41
2019-08-12 12:00:00 14.6 16 Norte 32 Norte 0 894.6 0.9 52
2019-08-12 11:00:00 13.1 16 Norte 28 Nordeste 0 894.4 1.3 59
2019-08-12 10:00:00 11.8 15 Norte 27 Norte 0 894.1 1.3 69
2019-08-12 09:00:00 10.4 15 Norte 23 Noroeste 0 893.7 0.9 77
2019-08-12 08:00:00 9.8 13 Noroeste 23 Noroeste 0 893.1 0.4 78
2019-08-12 07:00:00 10 13 Noroeste 22 Norte 0 892.8 -0.1 75
2019-08-12 06:00:00 10 15 Noroeste 22 Noroeste 0 892.8 -0.5 75
2019-08-12 05:00:00 10.3 8 Norte 24 Norte 0 892.7 -0.8 71
2019-08-12 04:00:00 10.6 9 Noroeste 22 Noroeste 0 892.9 -0.7 67
2019-08-12 03:00:00 11.4 8 Noroeste 21 Noroeste 0 893.3 0 62
2019-08-12 02:00:00 12.2 14 Noroeste 26 Noroeste 0 893.5 0.7 58
2019-08-12 01:00:00 13.2 18 Noroeste 28 Noroeste 0 893.6 1.4 53
2019-08-12 00:00:00 15 20 Noroeste 30 Noroeste 0 893.3 1.6 42
2019-08-11 23:00:00 15.9 13 Noroeste 25 Noroeste 0 892.8 1.6 35
2019-08-11 22:00:00 17.4 13 Noroeste 32 Noroeste 0 892.2 1.1 30
2019-08-11 21:00:00 19.2 19 Noroeste 35 Noroeste 0 891.7 0.8 29
2019-08-11 20:00:00 20.5 21 Noroeste 35 Norte 0 891.2 0.4 30
2019-08-11 19:00:00 21.8 19 Noroeste 33 Noroeste 0 891.1 0 30
2019-08-11 18:00:00 22.3 21 Noroeste 37 Norte 0 890.9 -0.5 29
2019-08-11 17:00:00 21.6 23 Noroeste 37 Noroeste 0 890.8 -0.8 36
2019-08-11 16:00:00 22 19 Noroeste 32 Noroeste 0 891.1 -0.4 39
2019-08-11 15:00:00 20.6 23 Noroeste 39 Norte 0 891.4 -0.1 46
2019-08-11 14:00:00 20.5 20 Noroeste 33 Noroeste 0 891.6 0.4 49
2019-08-11 13:00:00 20.3 16 Noroeste 29 Norte 0 891.5 0.7 51
2019-08-11 12:00:00 19.4 17 Norte 27 Noroeste 0 891.5 0.9 54
2019-08-11 11:00:00 19.4 12 Noroeste 19 Norte 0 891.2 0.8 48
2019-08-11 10:00:00 17.1 5 Noroeste 10 Noroeste 0 890.8 0.6 57
2019-08-11 09:00:00 15.6 2 Sudeste 8 Sudeste 0 890.6 0.1 61
2019-08-11 08:00:00 13.6 4 Norte 9 Nordeste 0 890.4 -1.5 69
2019-08-11 07:00:00 14.3 4 Norte 10 Norte 0 890.2 -1.1 65
2019-08-11 06:00:00 15.3 4 Noroeste 21 Noroeste 0 890.5 -0.9 61
2019-08-11 05:00:00 16 15 Noroeste 28 Noroeste 0 891.9 0.7 58
2019-08-11 04:00:00 17 13 Noroeste 22 Noroeste 0 891.3 -0.3 50
2019-08-11 03:00:00 17.7 8 Noroeste 15 Oeste 0 891.4 -0.3 48
2019-08-11 02:00:00 17.5 6 Norte 19 Noroeste 0 891.2 -0.7 48
2019-08-11 01:00:00 18.4 15 Noroeste 26 Noroeste 0 891.6 -0.2 45
2019-08-11 00:00:00 20.4 13 Noroeste 23 Norte 0 891.7 0.4 37
2019-08-10 23:00:00 21.6 8 Norte 18 Noroeste 0 891.9 0.7 40
2019-08-10 22:00:00 22.4 9 Norte 18 Noroeste 0 891.8 0.6 38
2019-08-10 21:00:00 23.5 8 Norte 22 Noroeste 0 891.3 0.2 34
2019-08-10 20:00:00 24.3 13 Noroeste 21 Noroeste 0 891.2 -0.3 34
2019-08-10 19:00:00 25.8 11 Noroeste 26 Noroeste 0 891.2 -1.1 28
2019-08-10 18:00:00 27.9 16 Noroeste 28 Noroeste 0 891.1 -1.6 23
2019-08-10 17:00:00 26.7 10 Nordeste 23 Norte 0 891.5 -1.7 25
2019-08-10 16:00:00 25.8 11 Norte 20 Nordeste 0 892.3 -1.2 27
2019-08-10 15:00:00 25.3 9 Noroeste 19 Noroeste 0 892.7 -1.2 30
2019-08-10 14:00:00 23.4 9 Norte 22 Norte 0 893.2 -0.9 35
2019-08-10 13:00:00 20.8 6 Norte 20 Norte 0 893.5 -0.8 48
2019-08-10 12:00:00 19.3 8 Nordeste 17 Nordeste 0 893.9 0.2 53
2019-08-10 11:00:00 17.1 7 Norte 16 Noroeste 0 894.1 0.7 61
2019-08-10 10:00:00 15.3 7 Norte 12 Noroeste 0 894.3 1.1 69
2019-08-10 09:00:00 13.2 3 Oeste 9 Sudeste 0 893.7 0.3 79
2019-08-10 08:00:00 11.7 3 Sudeste 7 Sur 0 893.4 0.2 84
2019-08-10 07:00:00 11.9 0 Calma 10 Norte 0 893.2 0.1 82
2019-08-10 06:00:00 12.7 6 Norte 12 Norte 0 893.4 0.4 82
2019-08-10 05:00:00 13.5 5 Norte 10 Noroeste 0 893.2 0.2 80
2019-08-10 04:00:00 14.1 8 Norte 18 Noroeste 0 893.1 0.1 77
2019-08-10 03:00:00 15.1 5 Noroeste 11 Oeste 0 893 0 71
2019-08-10 02:00:00 15.2 4 Oeste 8 Oeste 0 893 0.1 72
2019-08-10 01:00:00 16 4 Oeste 11 Oeste 0 893 0.9 76
2019-08-10 00:00:00 17.2 5 Oeste 12 Noroeste 0 893 1.3 66
2019-08-09 23:00:00 17.9 9 Noroeste 14 Noroeste 0 892.9 1 72
2019-08-09 22:00:00 16.8 8 Nordeste 16 Norte 0 892.1 0.1 86
2019-08-09 21:00:00 18.7 4 Sur 17 Sudoeste 0 891.7 0.1 75
2019-08-09 20:00:00 18.3 10 Sudoeste 22 Sur 0 891.9 1.7 76
2019-08-09 19:00:00 17.9 12 Oeste 37 Noroeste 0 892 1.5 78
2019-08-09 18:00:00 19.9 24 Noroeste 42 Noroeste 0.6 891.6 0.9 74
2019-08-09 17:00:00 26.6 13 Sudoeste 31 Oeste 0 890.2 0 51
2019-08-09 16:00:00 26 11 Oeste 34 Oeste 0 890.5 0.2 56
2019-08-09 15:00:00 25.3 20 Noroeste 40 Oeste 0 890.7 0.5 60
2019-08-09 14:00:00 28.1 13 Sudoeste 40 Sudoeste 0 890.2 0.3 43
2019-08-09 13:00:00 26.9 19 Sudoeste 35 Oeste 0 890.3 0.7 44
2019-08-09 12:00:00 25 15 Oeste 30 Oeste 0 890.2 0.8 48
2019-08-09 11:00:00 25.4 8 Sur 20 Sudoeste 0 889.9 0.9 49
2019-08-09 10:00:00 23.6 6 Sudoeste 11 Sudoeste 0 889.6 1 49
2019-08-09 09:00:00 21.9 4 Sudoeste 14 Sur 0 889.4 0.6 51
2019-08-09 08:00:00 19.6 4 Sudoeste 16 Sudeste 0 889 0.1 55
2019-08-09 07:00:00 19.2 9 Sudeste 16 Sur 0 888.6 -0.3 55
2019-08-09 06:00:00 18.7 3 Este 10 Sudeste 0 888.8 0 55
2019-08-09 05:00:00 19.7 5 Sudeste 10 Noroeste 0 888.9 -0.3 53
2019-08-09 04:00:00 20 3 Norte 10 Sur 0 888.9 -0.8 54
2019-08-09 03:00:00 20.8 6 Sudeste 10 Sudeste 0 888.8 -0.7 54
2019-08-09 02:00:00 20.6 3 Sur 9 Sur 0 889.2 -0.4 55
2019-08-09 01:00:00 21.7 4 Sur 7 Sudeste 0 889.7 0.6 51
2019-08-09 00:00:00 23.3 3 Sudeste 13 Noroeste 0 889.5 0.7 46
2019-08-08 23:00:00 23.8 6 Sudeste 21 Sudoeste 0 889.6 1.1 43
2019-08-08 22:00:00 24.8 11 Sudoeste 30 Sudoeste 0 889.1 0.9 39
2019-08-08 21:00:00 26.8 13 Sur 31 Sur 0 888.8 0.7 36
2019-08-08 20:00:00 28.2 19 Sudoeste 33 Sudoeste 0 888.5 0.5 32
2019-08-08 19:00:00 30.4 16 Sudoeste 31 Sudoeste 0 888.2 -0.3 28
2019-08-08 18:00:00 31.2 18 Sudoeste 36 Sudoeste 0 888.1 -0.9 28
2019-08-08 17:00:00 31.7 12 Sudoeste 27 Sudoeste 0 888 -1.3 30
2019-08-08 16:00:00 30.3 13 Sudoeste 25 Oeste 0 888.5 -1.1 34
2019-08-08 15:00:00 28.5 13 Sur 24 Sur 0 889 -0.9 38
2019-08-08 14:00:00 28.2 11 Sudeste 24 Sudeste 0 889.3 -0.5 37
2019-08-08 13:00:00 27 11 Sur 24 Sur 0 889.6 -0.6 39
2019-08-08 12:00:00 25.7 9 Sudeste 20 Sur 0 889.9 -0.2 43
2019-08-08 11:00:00 23 3 Norte 12 Sudoeste 0 889.8 0 52
2019-08-08 10:00:00 20 5 Sur 12 Sur 0 890.2 0.4 56
2019-08-08 09:00:00 16.4 7 Sur 11 Sudoeste 0 890.1 0.6 65
2019-08-08 08:00:00 15.8 5 Sudeste 10 Sudoeste 0 889.8 0 68
2019-08-08 07:00:00 15.6 5 Sudeste 13 Sudeste 0 889.8 -0.2 70
2019-08-08 06:00:00 16 7 Sudeste 13 Sudeste 0 889.5 -0.7 68
2019-08-08 05:00:00 16.6 4 Sudeste 8 Sudeste 0 889.8 -0.4 65
2019-08-08 04:00:00 16.8 7 Sudeste 11 Sudeste 0 890 -0.2 63
2019-08-08 03:00:00 16.7 4 Sudeste 10 Sudeste 0 890.2 0 65
2019-08-08 02:00:00 17.6 5 Sudoeste 9 Sudoeste 0 890.2 0 61
2019-08-08 01:00:00 18 5 Sudoeste 12 Sudoeste 0 890.2 0.6 59
2019-08-08 00:00:00 19.3 9 Sudoeste 22 Noroeste 0 890.2 1.1 53
2019-08-07 23:00:00 18.8 0 Calma 9 Sudoeste 0 890.2 0.9 59
2019-08-07 22:00:00 20.5 6 Noroeste 19 Sudoeste 0 889.6 0.1 53
2019-08-07 21:00:00 22 12 Sudoeste 24 Oeste 0 889.1 -0.6 51
2019-08-07 20:00:00 21.5 13 Sudoeste 26 Sudoeste 0 889.3 -0.4 55
2019-08-07 19:00:00 21.3 12 Sudoeste 25 Oeste 0 889.5 -0.2 56
2019-08-07 18:00:00 20.8 7 Sudoeste 13 Sur 0 889.7 -0.4 55
2019-08-07 17:00:00 20.1 8 Sudoeste 19 Sur 0.2 889.7 -0.3 58
2019-08-07 16:00:00 19.7 10 Sudoeste 19 Sudoeste 0.2 889.7 0 58
2019-08-07 15:00:00 19.8 10 Sudoeste 29 Sudoeste 0 890.1 0.9 56
2019-08-07 14:00:00 21.8 8 Sur 19 Sur 0 890 1.1 53
2019-08-07 13:00:00 21.7 3 Este 12 Norte 0 889.7 1.1 58
2019-08-07 12:00:00 21 6 Nordeste 10 Norte 0 889.2 0.8 61
2019-08-07 11:00:00 20.9 4 Norte 14 Noroeste 0 888.9 0.9 62
2019-08-07 10:00:00 20 4 Noroeste 13 Norte 0 888.6 1.3 65
2019-08-07 09:00:00 18.7 6 Norte 23 Noroeste 0 888.4 1.4 70
2019-08-07 08:00:00 18.9 9 Noroeste 16 Norte 0 888 1.2 66
2019-08-07 07:00:00 18.6 3 Nordeste 10 Noroeste 0 887.3 -0.4 63
2019-08-07 06:00:00 19.2 5 Noroeste 7 Noroeste 0 887 -1 61
2019-08-07 05:00:00 20.1 2 Sudeste 15 Noroeste 0 886.8 -1.2 58
2019-08-07 04:00:00 20.4 8 Noroeste 19 Norte 0 887.7 -0.9 54
2019-08-07 03:00:00 21.1 12 Noroeste 17 Noroeste 0 888 -0.7 50
2019-08-07 02:00:00 21.5 7 Norte 18 Noroeste 0 888 -0.5 47
2019-08-07 01:00:00 22.3 7 Noroeste 21 Norte 0 888.6 0.8 44
2019-08-07 00:00:00 23.2 12 Norte 19 Norte 0 888.7 1.5 41
2019-08-06 23:00:00 24.6 10 Noroeste 25 Noroeste 0 888.5 1.7 32
2019-08-06 22:00:00 26.1 10 Noroeste 24 Noroeste 0 887.8 1 29
2019-08-06 21:00:00 27.7 15 Noroeste 26 Noroeste 0 887.2 0.3 25
2019-08-06 20:00:00 29.1 17 Noroeste 33 Oeste 0 886.8 -0.2 25
2019-08-06 19:00:00 30.9 18 Noroeste 34 Noroeste 0 886.8 -0.5 21
2019-08-06 18:00:00 31.3 19 Noroeste 33 Noroeste 0 886.9 -1 20
2019-08-06 17:00:00 32.4 16 Noroeste 30 Noroeste 0 887 -1.6 19
2019-08-06 16:00:00 32.6 12 Noroeste 24 Noroeste 0 887.3 -1.8 19
2019-08-06 15:00:00 30.9 9 Norte 24 Norte 0 887.9 -1.4 23
2019-08-06 14:00:00 30.4 10 Nordeste 24 Sudoeste 0 888.6 -0.8 20
2019-08-06 13:00:00 29.7 9 Sudoeste 18 Sur 0 889.1 -0.5 21
2019-08-06 12:00:00 28.1 10 Oeste 17 Sudoeste 0 889.3 -0.3 22
2019-08-06 11:00:00 25.5 6 Sur 10 Sur 0 889.4 -0.5 32
2019-08-06 10:00:00 22.4 3 Sur 13 Sudeste 0 889.6 0 44
2019-08-06 09:00:00 19.5 6 Sudeste 9 Sudeste 0 889.6 0.3 41
2019-08-06 08:00:00 16.4 4 Sur 6 Sur 0 889.9 0.2 42
2019-08-06 07:00:00 16.3 0 Calma 6 Sudeste 0 889.6 -0.3 39
2019-08-06 06:00:00 16.8 3 Este 6 Sur 0 889.3 -0.9 35
2019-08-06 05:00:00 17.5 3 Este 7 Sur 0 889.7 -0.7 31
2019-08-06 04:00:00 18.5 4 Sur 7 Sur 0 889.9 -0.5 31
2019-08-06 03:00:00 19 0 Calma 7 Oeste 0 890.2 0.1 29
2019-08-06 02:00:00 21 5 Sudoeste 11 Oeste 0 890.4 0.4 24
2019-08-06 01:00:00 22.5 7 Sudoeste 13 Sudoeste 0 890.4 1.1 22
2019-08-06 00:00:00 23.9 8 Sudoeste 13 Sudoeste 0 890.1 1.4 27
2019-08-05 23:00:00 25 6 Noroeste 10 Noroeste 0 890 1.6 26
2019-08-05 22:00:00 27 9 Noroeste 18 Noroeste 0 889.3 1.1 23
2019-08-05 21:00:00 29.9 13 Noroeste 28 Noroeste 0 888.7 0.3 12
2019-08-05 20:00:00 31.2 17 Noroeste 30 Noroeste 0 888.4 -0.2 14
2019-08-05 19:00:00 31.9 19 Noroeste 39 Noroeste 0 888.2 -0.6 14
2019-08-05 18:00:00 32.4 15 Noroeste 39 Noroeste 0 888.4 -0.6 17
2019-08-05 17:00:00 31.9 10 Norte 30 Oeste 0 888.6 -0.8 18
2019-08-05 16:00:00 31.7 13 Norte 30 Sudeste 0 888.8 -1.1 19
2019-08-05 15:00:00 32.5 11 Sur 33 Sur 0 889 -1.4 12
2019-08-05 14:00:00 31.8 15 Sudoeste 30 Sudoeste 0 889.4 -1.2 12
2019-08-05 13:00:00 29.8 6 Oeste 14 Sur 0 889.9 -0.9 19
2019-08-05 12:00:00 28.4 6 Sudoeste 12 Oeste 0 890.4 -0.5 20
2019-08-05 11:00:00 25.6 3 Sudoeste 7 Sudoeste 0 890.6 -0.3 30
2019-08-05 10:00:00 22 3 Sudoeste 6 Sur 0 890.8 0 42
2019-08-05 09:00:00 19.3 2 Sur 6 Sudeste 0 890.9 0.2 45
2019-08-05 08:00:00 16.7 3 Sudeste 8 Sudeste 0 890.9 0 55
2019-08-05 07:00:00 16.6 3 Sudeste 5 Sudeste 0 890.8 -0.2 52
2019-08-05 06:00:00 17.3 3 Sudeste 6 Sudeste 0 890.7 -0.5 51
2019-08-05 05:00:00 18.4 3 Sur 8 Sudoeste 0 890.9 -0.4 45
2019-08-05 04:00:00 20.1 3 Oeste 12 Sudoeste 0 891 -0.4 41
2019-08-05 03:00:00 20.5 4 Sudoeste 9 Sudoeste 0 891.2 0 36
2019-08-05 02:00:00 21.6 5 Sur 9 Sudoeste 0 891.3 0.1 32
2019-08-05 01:00:00 22.7 4 Oeste 7 Noroeste 0 891.4 1 33
2019-08-05 00:00:00 24.7 5 Oeste 13 Oeste 0 891.2 1.5 29
2019-08-04 23:00:00 26 7 Noroeste 13 Noroeste 0 891.2 2 25
2019-08-04 22:00:00 27.4 8 Noroeste 24 Oeste 0 890.4 1.5 23
2019-08-04 21:00:00 29.7 14 Noroeste 29 Noroeste 0 889.7 0.8 20
2019-08-04 20:00:00 31.1 19 Noroeste 32 Noroeste 0 889.2 0.4 20
2019-08-04 19:00:00 31.6 19 Noroeste 33 Noroeste 0 888.9 -0.3 21
2019-08-04 18:00:00 30.9 18 Noroeste 35 Noroeste 0 888.9 -0.6 23
2019-08-04 17:00:00 32.7 20 Noroeste 34 Noroeste 0 888.8 -1 22
2019-08-04 16:00:00 32.4 4 Oeste 19 Oeste 0 889.2 -1 20
2019-08-04 15:00:00 30.8 10 Norte 19 Noroeste 0 889.5 -0.9 19
2019-08-04 14:00:00 30.9 9 Oeste 20 Oeste 0 889.8 -0.6 16
2019-08-04 13:00:00 29.2 7 Noroeste 21 Noroeste 0 890.2 -0.4 21
2019-08-04 12:00:00 28.2 5 Oeste 15 Sudoeste 0 890.4 -0.1 25
2019-08-04 11:00:00 25.9 5 Sudeste 8 Sudeste 0 890.4 0.3 35
2019-08-04 10:00:00 21.9 4 Sudoeste 8 Sur 0 890.6 0.5 45
2019-08-04 09:00:00 19.8 4 Sur 9 Sudoeste 0 890.5 0.3 50
2019-08-04 08:00:00 16.7 3 Sudeste 5 Sudoeste 0 890.1 -0.2 59
2019-08-04 07:00:00 17.2 3 Sur 7 Sur 0 890.1 -0.3 55
2019-08-04 06:00:00 18.3 5 Sudoeste 10 Sur 0 890.2 -0.3 51
2019-08-04 05:00:00 18.4 3 Sudoeste 6 Sur 0 890.3 -0.1 48
2019-08-04 04:00:00 20.3 3 Sur 11 Oeste 0 890.4 0.2 42
2019-08-04 03:00:00 21.5 6 Oeste 12 Sudoeste 0 890.5 0.4 39
2019-08-04 02:00:00 22.2 8 Sudoeste 15 Sudoeste 0 890.4 0.5 31
2019-08-04 01:00:00 22.6 3 Sur 9 Sudoeste 0 890.2 1.1 27
2019-08-04 00:00:00 24.2 4 Sudoeste 13 Oeste 0 890.1 1.5 27
2019-08-03 23:00:00 25.7 4 Oeste 14 Noroeste 0 889.9 1.6 27
2019-08-03 22:00:00 27.3 9 Noroeste 24 Noroeste 0 889.1 0.8 24
2019-08-03 21:00:00 29.6 17 Noroeste 28 Norte 0 888.6 0.2 21
2019-08-03 20:00:00 31.5 14 Noroeste 32 Noroeste 0 888.3 -0.3 14
2019-08-03 19:00:00 32.2 19 Noroeste 30 Noroeste 0 888.3 -0.7 13
2019-08-03 18:00:00 32.7 18 Noroeste 31 Noroeste 0 888.4 -1.1 13
2019-08-03 17:00:00 32.7 12 Sudeste 31 Sudeste 0 888.6 -1.2 13
2019-08-03 16:00:00 32.5 12 Sur 30 Sur 0 889 -1.1 13
2019-08-03 15:00:00 31.6 9 Sudoeste 30 Sur 0 889.5 -0.6 13
2019-08-03 14:00:00 31 12 Sur 29 Sur 0 889.8 -0.3 15
2019-08-03 13:00:00 30.4 8 Sudoeste 27 Sudoeste 0 890.1 -0.1 14
2019-08-03 12:00:00 29.2 10 Sudoeste 26 Sur 0 890.1 0.1 16
2019-08-03 11:00:00 27.4 10 Sur 21 Sudoeste 0 890.1 0.2 21
2019-08-03 10:00:00 23.5 5 Sur 9 Sur 0 890.2 0.4 32
2019-08-03 09:00:00 20.5 3 Oeste 9 Sur 0 890 0.4 36
2019-08-03 08:00:00 16.7 5 Sur 9 Sur 0 889.9 0.2 43
2019-08-03 07:00:00 16.5 5 Sur 8 Sur 0 889.8 0 42
2019-08-03 06:00:00 17.1 5 Sudeste 9 Sur 0 889.6 -0.3 41
2019-08-03 05:00:00 17.2 4 Sur 8 Sur 0 889.7 -0.5 41
2019-08-03 04:00:00 18.3 2 Sur 13 Sur 0 889.8 -0.7 39
2019-08-03 03:00:00 19 3 Sur 12 Sur 0 889.9 -0.8 37
2019-08-03 02:00:00 20.3 5 Sur 9 Sudoeste 0 890.2 -0.5 33
2019-08-03 01:00:00 20.7 2 Este 4 Sur 0 890.5 0.4 34
2019-08-03 00:00:00 22.7 4 Sudeste 7 Sudeste 0 890.7 1 29
2019-08-02 23:00:00 25.5 4 Norte 15 Norte 0 890.7 1.4 24
2019-08-02 22:00:00 27 8 Noroeste 24 Norte 0 890.1 0.8 22
2019-08-02 21:00:00 29.4 15 Noroeste 30 Norte 0 889.7 0.3 21
2019-08-02 20:00:00 30.4 15 Norte 27 Noroeste 0 889.3 -0.4 20
2019-08-02 19:00:00 31.8 16 Noroeste 31 Noroeste 0 889.3 -0.8 18
2019-08-02 18:00:00 32.2 10 Noroeste 23 Noroeste 0 889.4 -1 18
2019-08-02 17:00:00 32.3 11 Sudoeste 22 Sur 0 889.7 -0.9 16
2019-08-02 16:00:00 31.7 9 Sur 19 Este 0 890.1 -0.9 18
2019-08-02 15:00:00 31.2 7 Sudeste 24 Este 0 890.4 -0.5 18
2019-08-02 14:00:00 30 6 Norte 23 Sudoeste 0 890.6 -0.3 20
2019-08-02 13:00:00 29.5 10 Sudeste 21 Sudeste 0 891 0.1 20
2019-08-02 12:00:00 28.5 9 Sudeste 40 Sur 0 890.9 0.1 24
2019-08-02 11:00:00 25.5 5 Sur 10 Sudoeste 0 890.9 0.4 30
2019-08-02 10:00:00 21.8 4 Sur 8 Sur 0 890.9 0.6 34
2019-08-02 09:00:00 18.8 4 Sudeste 8 Sudeste 0 890.8 0.6 39
2019-08-02 08:00:00 15.4 2 Sur 4 Sur 0 890.5 0.1 49
2019-08-02 07:00:00 15.3 3 Sudeste 8 Sudeste 0 890.3 -0.1 48
2019-08-02 06:00:00 15.7 4 Sudeste 10 Sudoeste 0 890.2 -0.1 47
2019-08-02 05:00:00 17 4 Sur 17 Sudoeste 0 890.4 -0.1 43
2019-08-02 04:00:00 17.5 9 Sudoeste 14 Sudoeste 0 890.4 -0.1 38
2019-08-02 03:00:00 17.6 3 Sur 6 Sudoeste 0 890.3 0 39
2019-08-02 02:00:00 18.4 3 Sudoeste 8 Sur 0 890.5 0.7 38
2019-08-02 01:00:00 20.1 5 Sur 9 Sur 0 890.5 1.4 34
2019-08-02 00:00:00 21.8 3 Sur 9 Norte 0 890.3 1.7 31
2019-08-01 23:00:00 23.8 7 Norte 12 Norte 0 889.8 1.6 27
2019-08-01 22:00:00 25.3 8 Norte 20 Norte 0 889.1 1 25
2019-08-01 21:00:00 27.4 10 Noroeste 24 Norte 0 888.6 0.5 23
2019-08-01 20:00:00 28.1 16 Noroeste 27 Noroeste 0 888.2 0.1 23
2019-08-01 19:00:00 28.3 15 Noroeste 24 Noroeste 0 888.1 -0.2 23
2019-08-01 18:00:00 28.1 14 Noroeste 31 Noroeste 0 888.1 -0.4 23
2019-08-01 17:00:00 29 14 Noroeste 31 Norte 0 888.1 -0.6 22
2019-08-01 16:00:00 28.4 10 Norte 28 Noroeste 0 888.3 -0.4 23
2019-08-01 15:00:00 27.8 14 Norte 29 Noroeste 0 888.5 0 25
2019-08-01 14:00:00 26.8 16 Norte 35 Norte 0 888.7 0.6 26
2019-08-01 13:00:00 26.7 16 Noroeste 31 Noroeste 0 888.7 0.8 28
2019-08-01 12:00:00 25.6 17 Noroeste 30 Noroeste 0 888.5 0.8 30
2019-08-01 11:00:00 25.1 5 Sudeste 15 Sudoeste 0 888.1 0.4 38
2019-08-01 10:00:00 22.8 7 Sudoeste 17 Sudeste 0 887.9 0.4 54
2019-08-01 09:00:00 20.1 12 Sudeste 22 Sudeste 0 887.7 0.4 64
2019-08-01 08:00:00 18.2 9 Sur 24 Sur 0 887.7 0.2 72
2019-08-01 07:00:00 18.8 10 Sur 24 Sur 0 887.5 0.2 70
2019-08-01 06:00:00 19 13 Sur 25 Sudeste 0 887.3 -0.4 73
2019-08-01 05:00:00 19.5 8 Sur 26 Sudeste 0 887.5 -0.5 71
2019-08-01 04:00:00 20.7 16 Sudeste 26 Sudeste 0 887.3 -1.2 67
2019-08-01 03:00:00 21.2 6 Sur 15 Sudeste 0 887.7 -1 63
2019-08-01 02:00:00 21.3 4 Sur 8 Norte 0 888 -0.6 42
2019-08-01 01:00:00 22.1 3 Sudoeste 15 Nordeste 0 888.5 0.4 40
2019-08-01 00:00:00 22.8 11 Nordeste 21 Nordeste 0 888.7 0.8 38
2019-07-31 23:00:00 23.5 8 Norte 14 Norte 0 888.6 1.1 35
2019-07-31 22:00:00 24.2 9 Norte 22 Noroeste 0 888.1 0.5 34
2019-07-31 21:00:00 25.8 15 Noroeste 28 Noroeste 0 887.9 0.2 32
2019-07-31 20:00:00 29.1 9 Sur 29 Sur 0 887.5 -0.8 23
2019-07-31 19:00:00 30.1 15 Sudoeste 36 Sur 0 887.6 -1.1 19
2019-07-31 18:00:00 30.5 13 Sudoeste 32 Sudoeste 0 887.7 -1.3 18
2019-07-31 17:00:00 30 15 Sur 42 Sur 0 888.3 -1.1 19
2019-07-31 16:00:00 29.6 14 Sudoeste 38 Sudeste 0 888.7 -1.3 23
2019-07-31 15:00:00 28.6 17 Sur 33 Sur 0 889 -1 28
2019-07-31 14:00:00 27 15 Sur 34 Sudeste 0 889.4 -0.8 33
2019-07-31 13:00:00 24.9 15 Sudeste 34 Sudeste 0 890 -0.1 47
2019-07-31 12:00:00 23.2 12 Sudeste 30 Sudeste 0 890 0.1 52
2019-07-31 11:00:00 22.1 14 Sudeste 26 Sudeste 0 890.2 0 57
2019-07-31 10:00:00 20.2 6 Sudeste 19 Este 0 890.1 -0.4 57
2019-07-31 09:00:00 16.1 5 Sudeste 14 Sudeste 0 889.9 -0.7 60
2019-07-31 08:00:00 12.3 2 Norte 6 Sur 0 890.2 -0.6 49
2019-07-31 07:00:00 11.9 0 Calma 8 Sudeste 0 890.5 -0.4 50
2019-07-31 06:00:00 11.9 2 Este 8 Sur 0 890.6 -0.8 48
2019-07-31 05:00:00 12.5 4 Sur 8 Sur 0 890.8 -0.5 46
2019-07-31 04:00:00 13.5 3 Sur 9 Sudoeste 0 890.9 -0.4 43
2019-07-31 03:00:00 14.6 4 Sudoeste 9 Este 0 891.4 -0.2 40
2019-07-31 02:00:00 15.8 6 Este 11 Nordeste 0 891.3 -0.1 39
2019-07-31 01:00:00 16.4 4 Nordeste 13 Nordeste 0 891.3 0.6 36
2019-07-31 00:00:00 17.5 8 Norte 13 Norte 0 891.6 1.2 34
2019-07-30 23:00:00 19.2 8 Norte 17 Noroeste 0 891.4 1.2 34
2019-07-30 22:00:00 20.9 9 Norte 21 Norte 0 890.7 0.5 29
2019-07-30 21:00:00 22.6 14 Norte 25 Norte 0 890.4 -0.1 23
2019-07-30 20:00:00 23.6 13 Norte 25 Norte 0 890.2 -0.7 19
2019-07-30 19:00:00 24.4 14 Norte 28 Norte 0 890.2 -1.1 17
2019-07-30 18:00:00 24.1 10 Nordeste 24 Nordeste 0 890.5 -1.2 18
2019-07-30 17:00:00 23.4 11 Norte 33 Noroeste 0 890.9 -1.1 19
2019-07-30 16:00:00 23 11 Norte 24 Noroeste 0 891.3 -1 21
2019-07-30 15:00:00 21.7 14 Norte 27 Norte 0 891.7 -0.7 25
2019-07-30 14:00:00 20.4 14 Noroeste 25 Norte 0 892 -0.5 30
2019-07-30 13:00:00 18.6 9 Norte 22 Noroeste 0 892.3 -0.3 36
2019-07-30 12:00:00 16.8 8 Norte 24 Noroeste 0 892.4 0.1 44
2019-07-30 11:00:00 14.9 9 Norte 17 Noroeste 0 892.5 0.5 51
2019-07-30 10:00:00 13.1 11 Norte 20 Norte 0 892.6 0.9 56
2019-07-30 09:00:00 11.4 13 Noroeste 21 Noroeste 0 892.3 0.8 62
2019-07-30 08:00:00 10.2 12 Noroeste 26 Noroeste 0 892 0.5 67
2019-07-30 07:00:00 10.1 11 Norte 28 Norte 0 891.7 0.4 69
2019-07-30 06:00:00 11.2 16 Noroeste 24 Noroeste 0 891.5 0.1 64
2019-07-30 05:00:00 11.9 12 Noroeste 18 Noroeste 0 891.5 0.3 60
2019-07-30 04:00:00 12.7 11 Noroeste 25 Norte 0 891.3 0.4 56
2019-07-30 03:00:00 13.4 14 Noroeste 26 Noroeste 0 891.4 0.8 54
2019-07-30 02:00:00 14.7 17 Noroeste 28 Noroeste 0 891.2 0.9 47
2019-07-30 01:00:00 16.1 15 Noroeste 25 Noroeste 0 890.9 1.6 44
2019-07-30 00:00:00 17.1 15 Noroeste 25 Noroeste 0 890.6 2 39
2019-07-29 23:00:00 18.4 14 Noroeste 24 Noroeste 0 890.3 2.3 32
2019-07-29 22:00:00 20.1 15 Noroeste 32 Noroeste 0 889.3 1.6 29
2019-07-29 21:00:00 22.7 21 Noroeste 37 Norte 0 888.6 1 27
2019-07-29 20:00:00 24.5 21 Noroeste 39 Noroeste 0 888 0.5 24
2019-07-29 19:00:00 25.5 21 Noroeste 45 Noroeste 0 887.7 0.3 25
2019-07-29 18:00:00 26 23 Noroeste 45 Noroeste 0 887.6 0.2 27
2019-07-29 17:00:00 26.6 21 Noroeste 37 Norte 0 887.5 -0.1 32
2019-07-29 16:00:00 26 17 Noroeste 33 Noroeste 0 887.4 -0.4 35
2019-07-29 15:00:00 25.8 9 Norte 24 Norte 0 887.4 -0.6 29
2019-07-29 14:00:00 24.9 13 Norte 23 Noroeste 0 887.6 -0.3 27
2019-07-29 13:00:00 23.8 9 Norte 19 Norte 0 887.8 0.2 28
2019-07-29 12:00:00 21.8 11 Norte 25 Noroeste 0 888 0.6 30
2019-07-29 11:00:00 20.2 12 Noroeste 22 Norte 0 887.9 0.6 33
2019-07-29 10:00:00 19.6 7 Noroeste 12 Norte 0 887.6 0.6 34
2019-07-29 09:00:00 17.2 0 Calma 7 Sur 0 887.4 0.6 51
2019-07-29 08:00:00 15.2 2 Sudeste 7 Sudeste 0 887.3 0.4 55
2019-07-29 07:00:00 14.4 5 Este 8 Este 0 887 0.3 52
2019-07-29 06:00:00 14.3 5 Este 6 Nordeste 0 886.8 0 51
2019-07-29 05:00:00 15.1 3 Sudeste 10 Sur 0 886.9 0.1 46
2019-07-29 04:00:00 15.9 3 Sudoeste 8 Oeste 0 886.7 -0.2 43
2019-07-29 03:00:00 16.7 3 Sur 9 Sudoeste 0 886.8 0 42
2019-07-29 02:00:00 17.2 4 Sudoeste 9 Sur 0 886.8 0.1 40
2019-07-29 01:00:00 18.5 7 Sur 10 Sudoeste 0 886.9 0.7 37
2019-07-29 00:00:00 19.6 2 Sur 7 Sudoeste 0 886.8 0.9 34
2019-07-28 23:00:00 21.7 3 Este 9 Norte 0 886.7 1 30
2019-07-28 22:00:00 22.9 7 Norte 22 Noroeste 0 886.2 0.7 29
2019-07-28 21:00:00 24.6 8 Norte 23 Nordeste 0 885.9 0.2 28
2019-07-28 20:00:00 25.2 15 Nordeste 31 Noroeste 0 885.7 -0.3 21
2019-07-28 19:00:00 25.7 14 Noroeste 24 Noroeste 0 885.5 -1 22
2019-07-28 18:00:00 26.3 10 Noroeste 27 Noroeste 0 885.7 -0.8 26
2019-07-28 17:00:00 25 14 Norte 27 Noroeste 0 886 -0.7 30
2019-07-28 16:00:00 24.9 15 Norte 31 Noroeste 0 886.5 -0.5 31
2019-07-28 15:00:00 24.2 9 Noroeste 27 Noroeste 0 886.5 -0.8 30
2019-07-28 14:00:00 24 12 Noroeste 19 Noroeste 0 886.7 -0.7 32
2019-07-28 13:00:00 21.8 5 Norte 15 Noroeste 0 887 -0.7 36
2019-07-28 12:00:00 20.5 4 Sudoeste 18 Este 0 887.3 -0.1 42
2019-07-28 11:00:00 18.7 4 Nordeste 16 Este 0 887.4 0 46
2019-07-28 10:00:00 15.8 3 Noroeste 8 Sur 0 887.7 0.5 58
2019-07-28 09:00:00 12.7 4 Sur 9 Sudoeste 0 887.4 0.2 76
2019-07-28 08:00:00 10.7 3 Sur 9 Sur 0 887.4 -0.1 86
2019-07-28 07:00:00 10.2 3 Sudeste 10 Sur 0 887.2 -0.2 86
2019-07-28 06:00:00 11.1 4 Oeste 6 Norte 0 887.2 -0.3 83
2019-07-28 05:00:00 11.6 4 Noroeste 8 Noroeste 0 887.5 0.4 82
2019-07-28 04:00:00 12 5 Noroeste 8 Oeste 0 887.4 0.4 80
2019-07-28 03:00:00 12.5 4 Oeste 20 Norte 0 887.5 0.7 80
2019-07-28 02:00:00 13.4 12 Norte 21 Norte 0 887.1 0.7 79
2019-07-28 01:00:00 14.4 11 Norte 26 Nordeste 0 887 1.3 75
2019-07-28 00:00:00 15.9 14 Nordeste 24 Norte 0 886.8 1.6 69
2019-07-27 23:00:00 17.7 11 Norte 25 Norte 0 886.4 1.8 58
2019-07-26 12:00:00 18.4 13 Norte 25 Noroeste 0 888.8 0.5 68
2019-07-26 11:00:00 17.2 16 Norte 25 Norte 0 888.7 0.5 73
2019-07-26 10:00:00 17.1 14 Norte 23 Norte 0 888.4 0.4 78
2019-07-26 09:00:00 17.1 12 Norte 21 Noroeste 0 888.3 -0.3 79
2019-07-26 08:00:00 16.5 13 Norte 23 Norte 0 888.2 -0.6 81
2019-07-26 07:00:00 16.9 9 Norte 14 Norte 0 888 -0.7 81
2019-07-26 06:00:00 17.2 11 Noroeste 21 Norte 0 888.6 -0.9 81
2019-07-26 05:00:00 18.1 13 Noroeste 24 Norte 0 888.8 -0.6 79
2019-07-26 04:00:00 18.7 11 Norte 24 Norte 0 888.7 -0.8 75
2019-07-26 03:00:00 19.3 16 Noroeste 30 Noroeste 0 889.5 0 71
2019-07-26 02:00:00 21.4 9 Norte 19 Nordeste 0 889.4 0.3 54
2019-07-26 01:00:00 22 12 Norte 19 Norte 0 889.5 0.6 52
2019-07-26 00:00:00 23 13 Noroeste 27 Noroeste 0 889.5 0.8 46
2019-07-25 23:00:00 24.8 8 Noroeste 13 Noroeste 0 889.1 0.8 28
2019-07-25 22:00:00 26 6 Sur 22 Sudoeste 0 888.9 0.4 26
2019-07-25 21:00:00 28.1 12 Sudoeste 27 Sur 0 888.7 0.1 23
2019-07-25 20:00:00 29.4 16 Sur 31 Sur 0 888.3 -0.7 21
2019-07-25 19:00:00 30.5 16 Sudoeste 36 Sur 0 888.5 -0.6 20
2019-07-25 18:00:00 31.3 15 Sudoeste 35 Sudoeste 0 888.6 -0.7 19
2019-07-25 17:00:00 31.1 18 Sur 32 Sur 0 889 -0.6 13
2019-07-25 16:00:00 31.4 14 Sur 33 Sudoeste 0 889.1 -0.5 16
2019-07-25 15:00:00 30.6 23 Sur 39 Sur 0 889.3 -0.5 18
2019-07-25 14:00:00 30.4 19 Sur 39 Sur 0 889.6 -0.2 22
2019-07-25 13:00:00 30 21 Sur 40 Sur 0 889.6 -0.4 24
2019-07-25 12:00:00 28.6 17 Sur 37 Sur 0 889.8 -0.1 28
2019-07-25 11:00:00 27.9 17 Sur 38 Sur 0 889.8 -0.1 30
2019-07-25 10:00:00 24 5 Sudeste 10 Sudeste 0 890 0.3 39
2019-07-25 09:00:00 20.9 5 Sur 8 Sudoeste 0 889.9 0.3 46
2019-07-25 08:00:00 18.4 3 Sur 8 Sudoeste 0 889.9 0.1 54
2019-07-25 07:00:00 18.6 7 Sur 10 Sur 0 889.7 -0.4 53
2019-07-25 06:00:00 19.7 3 Sudeste 7 Este 0 889.6 -0.5 48
2019-07-25 05:00:00 20.1 4 Sudeste 7 Sudeste 0 889.8 -0.3 46
2019-07-25 04:00:00 21.5 3 Nordeste 16 Norte 0 890.1 0.4 43
2019-07-25 03:00:00 22.9 9 Noroeste 18 Noroeste 0 890.1 0.4 40
2019-07-25 02:00:00 23 6 Oeste 19 Noroeste 0 890.1 0.4 42
2019-07-25 01:00:00 24.6 3 Sur 10 Sur 0 889.7 0.3 39
2019-07-25 00:00:00 26.1 6 Sur 10 Sur 0 889.7 0.5 35
2019-07-24 23:00:00 27.4 5 Sudoeste 12 Sudoeste 0 889.7 0.6 32
2019-07-24 22:00:00 29.1 8 Oeste 20 Sudoeste 0 889.4 0.2 29
2019-07-24 21:00:00 30.9 8 Sudoeste 23 Sudoeste 0 889.2 -0.4 26
2019-07-24 20:00:00 32.2 12 Sudoeste 30 Sudoeste 0 889.1 -0.8 23
2019-07-24 19:00:00 33 12 Sur 30 Sudoeste 0 889.2 -1 21
2019-07-24 18:00:00 32.4 14 Sur 33 Sur 0 889.6 -1.1 21
2019-07-24 17:00:00 32.8 12 Sudoeste 34 Sur 0 889.9 -1.2 21
2019-07-24 16:00:00 33.1 14 Sudoeste 42 Sur 0 890.2 -1.2 21
2019-07-24 15:00:00 31.8 14 Sur 33 Sudoeste 0 890.7 -1 23
2019-07-24 14:00:00 31.8 10 Sudoeste 34 Sur 0 891.1 -0.6 24
2019-07-24 13:00:00 30.3 13 Sudeste 25 Sur 0 891.4 -0.3 26
2019-07-24 12:00:00 28.8 15 Sur 26 Sur 0 891.7 0.1 28
2019-07-24 11:00:00 27.5 14 Sudeste 27 Sudeste 0 891.7 0.3 29
2019-07-24 10:00:00 26.1 12 Sudeste 28 Sur 0 891.7 0.4 31
2019-07-24 09:00:00 23.9 6 Sur 21 Sudeste 0 891.6 0.4 38
2019-07-24 08:00:00 21.8 11 Sur 19 Sudeste 0 891.4 0.1 42
2019-07-24 07:00:00 20.6 7 Sur 11 Sur 0 891.3 -0.3 44
2019-07-24 06:00:00 21.1 7 Sudeste 17 Sudeste 0 891.2 -1 42
2019-07-24 05:00:00 20.8 5 Sur 14 Sudoeste 0 891.3 -1.7 43
2019-07-24 04:00:00 21.1 5 Sur 12 Sur 0 891.6 -1.2 43
2019-07-24 03:00:00 22 6 Sur 23 Sur 0 892.2 -0.4 41
2019-07-24 02:00:00 22.1 6 Sur 18 Sudoeste 0 893 1.2 42
2019-07-24 01:00:00 22.7 10 Sudeste 22 Sur 0 892.8 1.1 40
2019-07-24 00:00:00 23.9 10 Sur 28 Sudeste 0 892.6 0.9 37
2019-07-23 23:00:00 25.3 9 Oeste 32 Sudeste 0 891.8 1.7 32
2019-07-23 22:00:00 24.1 12 Sur 43 Sur 0 891.7 1.5 36
2019-07-23 21:00:00 27.2 22 Sur 52 Sudeste 0 891.7 0.9 32
2019-07-23 20:00:00 31.7 14 Sudeste 26 Sudeste 0 890.1 -1.2 20
2019-07-23 19:00:00 32.5 12 Sudoeste 28 Sur 0 890.2 -1.7 23
2019-07-23 18:00:00 32.3 15 Sur 33 Sudeste 0 890.8 -1.1 24
2019-07-23 17:00:00 32.4 15 Sudeste 35 Sur 0 891.3 -0.8 24
2019-07-23 16:00:00 31 13 Sur 34 Sudeste 0 891.9 -1 25
2019-07-23 15:00:00 31.6 14 Sudeste 32 Sudeste 0 891.9 -1.8 26
2019-07-23 14:00:00 30.1 14 Sudeste 28 Este 0 892.1 -1.4 27
2019-07-23 13:00:00 27.4 11 Sudeste 23 Sudeste 0 892.9 0 35
2019-07-23 12:00:00 24.7 9 Sur 36 Sudoeste 0 893.7 0.4 45
2019-07-23 11:00:00 24.7 14 Sudeste 27 Sudeste 0 893.5 -0.2 45
2019-07-23 10:00:00 21.9 10 Sudeste 18 Sudeste 0 892.9 -2.7 56
2019-07-23 09:00:00 20.4 5 Sur 10 Sur 0 893.3 -1.9 64
2019-07-23 08:00:00 19.3 4 Nordeste 21 Noroeste 0.2 893.7 -1.1 67
2019-07-23 07:00:00 20.3 9 Oeste 32 Sur 0 895.6 1.3 61
2019-07-23 06:00:00 19.7 10 Sur 27 Sudoeste 0.2 895.2 -0.4 65
2019-07-23 05:00:00 20.5 12 Sudoeste 27 Sudoeste 0 894.8 0 59
2019-07-23 04:00:00 21.5 6 Sur 17 Sudoeste 0 894.3 -0.4 53
2019-07-23 03:00:00 22.5 10 Sudoeste 32 Nordeste 0 895.6 0.7 43
2019-07-23 02:00:00 23.6 16 Norte 31 Norte 0 894.8 0.8 38
2019-07-23 01:00:00 23.7 6 Este 17 Sudoeste 0 894.7 1.6 47
2019-07-23 00:00:00 25 10 Oeste 46 Sudeste 0.4 894.9 2 42
2019-07-22 23:00:00 27 22 Sudeste 55 Sudeste 0.2 894 1.4 33
2019-07-22 22:00:00 28.9 3 Sudeste 18 Sudeste 0 893.1 0.4 26
2019-07-22 21:00:00 30.9 8 Sudeste 26 Sudeste 0 892.9 -0.1 22
2019-07-22 20:00:00 31.6 14 Sudeste 28 Sudeste 0 892.6 -1 21
2019-07-22 19:00:00 32.6 13 Sudeste 32 Sur 0 892.7 -1.1 19
2019-07-22 18:00:00 32.7 16 Sudeste 43 Sudeste 0 893 -1.3 20
2019-07-22 17:00:00 33.6 18 Sudeste 39 Sudeste 0 893.6 -0.8 21
2019-07-22 16:00:00 32.6 23 Sudeste 49 Sudeste 0 893.8 -1 22
2019-07-22 15:00:00 32.3 24 Sudeste 41 Sudeste 0 894.3 -0.9 21
2019-07-22 14:00:00 32 20 Sudeste 39 Sudeste 0 894.4 -0.7 22
2019-07-22 13:00:00 30.9 18 Sudeste 37 Sudeste 0 894.8 -0.4 22
2019-07-22 12:00:00 29 19 Sudeste 34 Sudeste 0 895.2 0.2 23
2019-07-22 11:00:00 27.2 15 Sur 33 Sur 0 895.1 0.1 26
2019-07-22 10:00:00 25.6 10 Sur 22 Sur 0 895.2 0.5 29
2019-07-22 09:00:00 24.3 9 Sur 21 Sudeste 0 895 0.2 33
2019-07-22 08:00:00 22.6 4 Sur 41 Sudeste 0 895 0.1 33
2019-07-22 07:00:00 22.6 13 Sudeste 36 Sur 0 894.7 -0.2 36
2019-07-22 06:00:00 22.6 10 Sudeste 19 Sudeste 0 894.8 -0.3 38
2019-07-22 05:00:00 23 12 Sudeste 23 Sudeste 0 894.9 -0.3 41
2019-07-22 04:00:00 23.6 10 Sudeste 29 Sudeste 0 894.9 -0.2 40
2019-07-22 03:00:00 24.5 14 Sudeste 35 Sur 0 895.1 0 41
2019-07-22 02:00:00 25.9 14 Sudeste 25 Sudeste 0 895.2 0.7 41
2019-07-22 01:00:00 24.5 8 Sur 21 Sudeste 0 895.1 1.3 35
2019-07-22 00:00:00 25.6 9 Sudeste 17 Sudeste 0 895.1 1.7 33
2019-07-21 23:00:00 26.8 3 Sur 10 Sudoeste 0 894.5 1.4 33
2019-07-21 22:00:00 28.9 4 Oeste 10 Noroeste 0 893.8 0.8 28
2019-07-21 21:00:00 30.8 8 Oeste 17 Noroeste 0 893.4 0.9 26
2019-07-21 20:00:00 31.9 10 Noroeste 24 Norte 0 893.1 0.1 23
2019-07-21 19:00:00 31.7 12 Noroeste 28 Noroeste 0 893 -0.2 26
2019-07-21 18:00:00 33 13 Norte 30 Norte 0 892.5 -0.7 21
2019-07-21 17:00:00 33 12 Norte 26 Sur 0 893 -0.5 22
2019-07-21 16:00:00 34.5 12 Sudeste 36 Sur 0 893.2 -0.5 20
2019-07-21 15:00:00 33.7 14 Sudeste 32 Sur 0 893.2 -0.4 22
2019-07-21 14:00:00 33.2 14 Sur 32 Sur 0 893.5 0 22
2019-07-21 13:00:00 32.5 12 Sur 32 Sudoeste 0 893.7 0.1 22
2019-07-21 12:00:00 31 7 Sur 25 Sudeste 0 893.6 0.1 22
2019-07-21 11:00:00 28 10 Sur 20 Sudeste 0 893.5 0.3 32
2019-07-21 10:00:00 23.6 4 Sudoeste 7 Sur 0 893.6 0.4 39
2019-07-21 09:00:00 21.2 3 Sudoeste 6 Sur 0 893.5 0.5 42
2019-07-21 08:00:00 17.9 0 Calma 4 Sur 0 893.2 0.2 49
2019-07-21 07:00:00 17.6 0 Calma 8 Noroeste 0 893.2 0.1 47
2019-07-21 06:00:00 18.4 3 Este 9 Sudeste 0 893 -0.4 45
2019-07-21 05:00:00 18.9 4 Sur 10 Sur 0 893 -0.3 43
2019-07-21 04:00:00 20 4 Sudoeste 10 Sudoeste 0 893.1 -0.1 39
2019-07-21 03:00:00 20.2 3 Sur 7 Noroeste 0 893.4 0.4 39
2019-07-21 02:00:00 21.5 4 Oeste 7 Norte 0 893.3 0.9 37
2019-07-21 01:00:00 23.6 4 Norte 13 Noroeste 0 893.2 1.6 31
2019-07-21 00:00:00 24.8 3 Noroeste 16 Norte 0 893 2 28
2019-07-20 23:00:00 26.6 10 Norte 17 Noroeste 0 892.4 2 24
2019-07-20 22:00:00 28.3 10 Noroeste 23 Norte 0 891.6 1.4 23
2019-07-20 21:00:00 30.3 15 Noroeste 28 Noroeste 0 891 0.8 21
2019-07-20 20:00:00 31.6 17 Noroeste 34 Norte 0 890.4 0.1 22
2019-07-20 19:00:00 32.1 17 Noroeste 31 Norte 0 890.2 -0.1 23
2019-07-20 18:00:00 32.4 14 Noroeste 27 Noroeste 0 890.2 0 25
2019-07-20 17:00:00 32.6 13 Noroeste 29 Norte 0 890.3 -0.1 25
2019-07-20 16:00:00 31.8 16 Noroeste 32 Norte 0 890.3 0.1 26
2019-07-20 15:00:00 30.8 14 Norte 29 Norte 0 890.2 -0.1 28
2019-07-20 14:00:00 30.7 13 Noroeste 32 Noroeste 0 890.4 0 29
2019-07-20 13:00:00 30.9 8 Nordeste 20 Norte 0 890.2 -0.2 27
2019-07-20 12:00:00 29.1 8 Sudeste 20 Este 0 890.3 0.1 28
2019-07-20 11:00:00 26.3 11 Norte 21 Norte 0 890.4 0.5 35
2019-07-20 10:00:00 24.3 4 Norte 8 Nordeste 0 890.4 1 38
2019-07-20 09:00:00 21.5 3 Sudeste 8 Sudeste 0 890.2 0.8 45
2019-07-20 08:00:00 18.5 3 Sur 6 Sudoeste 0 889.9 0.4 52
2019-07-20 07:00:00 18.1 2 Sudeste 5 Sudoeste 0 889.4 -0.3 54
2019-07-20 06:00:00 19.1 4 Sur 9 Sur 0 889.4 -0.4 51
2019-07-20 05:00:00 19.7 0 Calma 6 Sur 0 889.5 -0.3 50
2019-07-20 04:00:00 21.5 4 Sur 9 Sudoeste 0 889.7 0 44
2019-07-20 03:00:00 23.1 5 Oeste 21 Oeste 0 889.8 0.6 39
2019-07-20 02:00:00 23.9 10 Oeste 22 Oeste 0 889.8 0.8 37
2019-07-20 01:00:00 22.7 5 Noroeste 16 Noroeste 0 889.7 1.1 36
2019-07-20 00:00:00 24.1 5 Este 7 Sur 0 889.2 0.9 33
2019-07-19 23:00:00 26.1 3 Sudoeste 10 Sudoeste 0 889 0.9 30
2019-07-19 22:00:00 28.8 7 Sudoeste 16 Sur 0 888.6 0.5 25
2019-07-19 21:00:00 30.8 8 Sudoeste 15 Oeste 0 888.3 -0.1 21
2019-07-19 20:00:00 31.1 8 Noroeste 24 Noroeste 0 888.1 -0.5 21
2019-07-19 19:00:00 32.8 12 Oeste 27 Norte 0 888.1 -0.7 21
2019-07-19 18:00:00 32.6 9 Sur 27 Norte 0 888.4 -0.9 20
2019-07-19 17:00:00 31.6 10 Oeste 28 Sur 0 888.6 -1.3 21
2019-07-19 16:00:00 32.6 14 Sudoeste 40 Oeste 0 888.8 -1.4 19
2019-07-19 15:00:00 32.4 13 Sudoeste 36 Sur 0 889.3 -1 19
2019-07-19 14:00:00 31.3 13 Sudoeste 29 Sudoeste 0 889.9 -0.7 22
2019-07-19 13:00:00 30.8 13 Sudoeste 33 Sudoeste 0 890.2 -0.6 24
2019-07-19 12:00:00 29.6 15 Sudeste 32 Sudeste 0 890.3 -0.3 29
2019-07-19 11:00:00 27.7 10 Sudeste 20 Sudeste 0 890.6 0.2 29
2019-07-19 10:00:00 24.8 7 Sudeste 15 Sudeste 0 890.8 0.4 30
2019-07-19 09:00:00 20.7 3 Sur 8 Sur 0 890.6 0.1 34
2019-07-19 08:00:00 18.7 4 Sur 7 Sudeste 0 890.4 -0.3 38
2019-07-19 07:00:00 17.4 4 Sur 10 Sudeste 0 890.4 -0.5 41
2019-07-19 06:00:00 17.9 4 Sur 7 Sudeste 0 890.5 -0.6 41
2019-07-19 05:00:00 18.4 3 Sur 9 Sur 0 890.7 -0.3 38
2019-07-19 04:00:00 19.5 4 Sur 10 Sudoeste 0 890.9 -0.1 38
2019-07-19 03:00:00 20.5 4 Sudoeste 13 Sudoeste 0 891.1 0 35
2019-07-19 02:00:00 21.5 4 Sur 8 Sudoeste 0 891 0.2 34
2019-07-19 01:00:00 23.4 2 Norte 9 Norte 0 891 0.8 29
2019-07-19 00:00:00 24.3 6 Norte 13 Norte 0 891.1 1.2 27